createdAt,value
2022-09-07T00:02:34.940Z,95557.34
2022-09-07T00:05:43.300Z,95551.69
2022-09-07T00:08:46.402Z,95546.34
2022-09-07T00:11:49.474Z,95556.94
2022-09-07T00:14:54.447Z,95548.94
2022-09-07T00:17:57.531Z,95552.69
2022-09-07T00:21:01.901Z,95553.78
2022-09-07T00:24:05.190Z,95553.25
2022-09-07T00:27:08.244Z,95552.72
2022-09-07T00:30:13.313Z,95547.31
2022-09-07T00:33:16.423Z,95548.47
2022-09-07T00:36:21.246Z,95546.28
2022-09-07T00:39:24.431Z,95548.66
2022-09-07T00:42:27.609Z,95546.41
2022-09-07T00:45:32.074Z,95560.84
2022-09-07T00:48:40.197Z,95554.78
2022-09-07T00:51:49.452Z,95552.38
2022-09-07T00:55:00.207Z,95549.84
2022-09-07T00:58:03.742Z,95548.94
2022-09-07T01:01:09.850Z,95548.25
2022-09-07T01:04:13.099Z,95551.91
2022-09-07T01:07:16.292Z,95536.38
2022-09-07T01:10:19.558Z,95536.38
2022-09-07T01:13:22.626Z,95540.25
2022-09-07T01:16:40.155Z,95535.56
2022-09-07T01:20:25.056Z,95532.25
2022-09-07T01:24:00.140Z,95532.25
2022-09-07T01:27:40.530Z,95532.59
2022-09-07T01:30:52.909Z,95531.72
2022-09-07T01:34:04.354Z,95529.44
2022-09-07T01:37:16.703Z,95536.56
2022-09-07T01:40:31.032Z,95525.81
2022-09-07T01:43:41.261Z,95529.25
2022-09-07T01:46:51.163Z,95532.44
2022-09-07T01:50:00.136Z,95535.91
2022-09-07T01:53:10.337Z,95531.44
2022-09-07T01:56:16.474Z,95528.38
2022-09-07T01:59:29.067Z,95528.25
2022-09-07T02:02:37.853Z,95525.03
2022-09-07T02:05:47.947Z,95526.81
2022-09-07T02:08:54.643Z,95521.16
2022-09-07T02:11:58.593Z,95517.88
2022-09-07T02:15:06.596Z,95518.88
2022-09-07T02:18:11.922Z,95514.63
2022-09-07T02:21:18.686Z,95514.13
2022-09-07T02:24:26.395Z,95506.63
2022-09-07T02:27:34.805Z,95517.00
2022-09-07T02:30:39.887Z,95513.03
2022-09-07T02:33:43.284Z,95505.53
2022-09-07T02:36:49.043Z,95511.28
2022-09-07T02:39:52.569Z,95508.31
2022-09-07T02:42:55.738Z,95507.22
2022-09-07T02:46:19.649Z,95502.47
2022-09-07T02:49:39.855Z,95511.91
2022-09-07T02:52:54.231Z,95516.56
2022-09-07T02:56:08.499Z,95522.69
2022-09-07T02:59:23.975Z,95519.25
2022-09-07T03:02:32.627Z,95522.91
2022-09-07T03:05:43.881Z,95526.44
2022-09-07T03:08:51.715Z,95531.28
2022-09-07T03:11:55.709Z,95517.81
2022-09-07T03:14:58.788Z,95523.53
2022-09-07T03:18:03.269Z,95531.25
2022-09-07T03:21:06.529Z,95522.75
2022-09-07T03:24:09.920Z,95517.81
2022-09-07T03:27:13.060Z,95514.09
2022-09-07T03:30:16.406Z,95518.28
2022-09-07T03:33:20.912Z,95524.28
2022-09-07T03:36:24.109Z,95528.16
2022-09-07T03:39:28.778Z,95529.63
2022-09-07T03:42:31.875Z,95530.53
2022-09-07T03:45:35.192Z,95531.78
2022-09-07T03:48:39.989Z,95528.72
2022-09-07T03:51:43.097Z,95524.56
2022-09-07T03:54:46.453Z,95536.59
2022-09-07T03:57:49.549Z,95532.75
2022-09-07T04:00:53.046Z,95533.16
2022-09-07T04:04:02.690Z,95537.38
2022-09-07T04:07:06.814Z,95544.00
2022-09-07T04:10:10.518Z,95542.34
2022-09-07T04:13:13.607Z,95540.00
2022-09-07T04:16:19.377Z,95547.63
2022-09-07T04:19:23.980Z,95551.44
2022-09-07T04:22:27.565Z,95550.84
2022-09-07T04:25:30.740Z,95557.09
2022-09-07T04:28:33.810Z,95562.25
2022-09-07T04:31:37.564Z,95553.63
2022-09-07T04:34:42.057Z,95554.41
2022-09-07T04:37:45.798Z,95552.94
2022-09-07T04:40:48.877Z,95557.56
2022-09-07T04:43:55.954Z,95548.22
2022-09-07T04:46:59.026Z,95541.38
2022-09-07T04:50:03.549Z,95558.19
2022-09-07T04:53:06.662Z,95558.78
2022-09-07T04:56:12.781Z,95553.03
2022-09-07T04:59:18.134Z,95551.06
2022-09-07T05:02:21.307Z,95562.84
2022-09-07T05:05:25.874Z,95559.56
2022-09-07T05:08:29.276Z,95566.59
2022-09-07T05:11:32.389Z,95560.00
2022-09-07T05:14:35.540Z,95565.56
2022-09-07T05:17:38.610Z,95567.16
2022-09-07T05:20:43.362Z,95568.31
2022-09-07T05:23:46.562Z,95566.25
2022-09-07T05:26:49.683Z,95565.78
2022-09-07T05:33:02.833Z,95562.38
2022-09-07T05:36:08.806Z,95559.91
2022-09-07T05:39:12.206Z,95562.13
2022-09-07T05:42:15.265Z,95569.44
2022-09-07T05:45:18.493Z,95555.56
2022-09-07T05:48:21.658Z,95556.91
2022-09-07T05:51:26.130Z,95555.72
2022-09-07T05:54:29.218Z,95556.00
2022-09-07T05:57:32.280Z,95555.69
2022-09-07T06:00:35.390Z,95556.78
2022-09-07T06:03:40.627Z,95557.75
2022-09-07T06:06:59.165Z,95559.66
2022-09-07T06:13:33.180Z,95568.75
2022-09-07T06:16:36.351Z,95568.94
2022-09-07T06:19:39.514Z,95560.50
2022-09-07T06:22:44.110Z,95547.84
2022-09-07T06:25:50.338Z,95562.13
2022-09-07T06:28:57.643Z,95558.91
2022-09-07T06:35:24.625Z,95565.28
2022-09-07T06:38:31.999Z,95567.81
2022-09-07T06:44:58.668Z,95573.28
2022-09-07T06:48:01.744Z,95565.59
2022-09-07T06:51:07.890Z,95566.63
2022-09-07T06:57:35.562Z,95568.56
2022-09-07T07:00:38.765Z,95577.63
2022-09-07T07:03:42.538Z,95568.31
2022-09-07T07:06:45.709Z,95573.81
2022-09-07T07:09:51.392Z,95577.91
2022-09-07T07:12:57.739Z,95575.81
2022-09-07T07:16:05.991Z,95580.78
2022-09-07T07:19:09.338Z,95579.66
2022-09-07T07:22:43.031Z,95570.41
2022-09-07T07:25:37.041Z,95569.88
2022-09-07T07:32:04.356Z,95569.13
2022-09-07T07:35:08.908Z,95575.34
2022-09-07T07:48:25.519Z,95584.00
2022-09-07T07:51:28.833Z,95580.28
2022-09-07T07:54:33.955Z,95578.59
2022-09-07T07:57:38.428Z,95573.63
2022-09-07T08:00:54.373Z,95585.97
2022-09-07T08:03:58.335Z,95585.19
2022-09-07T08:07:05.571Z,95585.91
2022-09-07T08:10:12.886Z,95570.88
2022-09-07T08:13:19.244Z,95572.91
2022-09-07T08:16:23.081Z,95576.97
2022-09-07T08:19:26.111Z,95570.53
2022-09-07T08:22:31.769Z,95579.81
2022-09-07T08:25:38.010Z,95569.63
2022-09-07T08:28:45.458Z,95575.50
2022-09-07T08:31:48.502Z,95575.91
2022-09-07T08:34:51.538Z,95568.09
2022-09-07T08:37:54.504Z,95559.31
2022-09-07T08:40:58.356Z,95560.75
2022-09-07T08:44:06.464Z,95560.88
2022-09-07T08:47:22.587Z,95549.47
2022-09-07T08:50:30.533Z,95551.13
2022-09-07T08:53:33.664Z,95545.84
2022-09-07T08:57:20.165Z,95550.63
2022-09-07T09:00:08.894Z,95545.25
2022-09-07T09:03:29.871Z,95528.69
2022-09-07T09:06:49.285Z,95527.91
2022-09-07T09:10:15.867Z,95523.84
2022-09-07T09:13:21.056Z,95519.91
2022-09-07T09:16:35.209Z,95514.81
2022-09-07T09:19:52.810Z,95516.88
2022-09-07T09:23:02.134Z,95512.19
2022-09-07T09:26:11.781Z,95510.31
2022-09-07T09:29:15.568Z,95504.19
2022-09-07T09:32:39.855Z,95507.81
2022-09-07T09:35:45.320Z,95497.91
2022-09-07T09:38:48.356Z,95495.84
2022-09-07T09:41:51.388Z,95496.63
2022-09-07T09:44:55.330Z,95492.84
2022-09-07T09:48:01.942Z,95481.50
2022-09-07T09:54:34.158Z,95491.91
2022-09-07T10:01:25.616Z,95487.34
2022-09-07T10:04:35.170Z,95481.50
2022-09-07T10:07:38.252Z,95476.16
2022-09-07T10:10:51.866Z,95475.84
2022-09-07T10:13:57.856Z,95462.28
2022-09-07T10:17:02.404Z,95462.75
2022-09-07T10:20:32.208Z,95455.81
2022-09-07T10:23:35.260Z,95456.44
2022-09-07T10:26:40.463Z,95459.44
2022-09-07T10:29:43.470Z,95459.13
2022-09-07T10:32:59.664Z,95441.47
2022-09-07T10:36:11.844Z,95439.44
2022-09-07T10:39:19.096Z,95440.53
2022-09-07T10:42:29.115Z,95435.19
2022-09-07T10:45:40.030Z,95430.91
2022-09-07T10:48:53.865Z,95429.66
2022-09-07T10:52:10.342Z,95431.09
2022-09-07T10:55:20.400Z,95433.78
2022-09-07T11:02:02.439Z,95429.19
2022-09-07T11:05:15.321Z,95417.69
2022-09-07T11:09:15.466Z,95410.31
2022-09-07T11:12:04.425Z,95411.41
2022-09-07T11:15:19.420Z,95407.16
2022-09-07T11:18:27.974Z,95407.94
2022-09-07T11:25:30.185Z,95404.63
2022-09-07T11:28:45.891Z,95401.94
2022-09-07T11:31:54.640Z,95391.88
2022-09-07T11:35:02.840Z,95388.72
2022-09-07T11:38:15.022Z,95389.19
2022-09-07T11:41:24.808Z,95384.94
2022-09-07T11:44:35.923Z,95382.56
2022-09-07T11:47:43.564Z,95381.00
2022-09-07T11:50:52.630Z,95382.44
2022-09-07T11:53:58.261Z,95383.03
2022-09-07T11:57:17.157Z,95375.50
2022-09-07T12:00:22.766Z,95381.47
2022-09-07T12:03:58.847Z,95365.41
2022-09-07T12:07:25.595Z,95368.56
2022-09-07T12:10:41.995Z,95369.97
2022-09-07T12:14:08.678Z,95370.28
2022-09-07T12:17:31.799Z,95360.69
2022-09-07T12:20:41.887Z,95358.00
2022-09-07T12:23:48.521Z,95349.97
2022-09-07T12:26:53.024Z,95352.31
2022-09-07T12:30:30.316Z,95348.06
2022-09-07T12:33:37.314Z,95349.97
2022-09-07T12:36:51.559Z,95338.78
2022-09-07T12:40:28.023Z,95338.47
2022-09-07T12:44:07.483Z,95330.75
2022-09-07T12:47:31.467Z,95328.88
2022-09-07T12:50:40.122Z,95328.88
2022-09-07T12:53:57.586Z,95333.13
2022-09-07T12:57:31.162Z,95326.97
2022-09-07T13:00:47.172Z,95328.09
2022-09-07T13:04:12.987Z,95322.41
2022-09-07T13:08:04.325Z,95315.16
2022-09-07T13:11:26.717Z,95308.25
2022-09-07T13:14:30.829Z,95315.16
2022-09-07T13:17:44.531Z,95305.56
2022-09-07T13:21:25.918Z,95311.72
2022-09-07T13:24:56.387Z,95308.25
2022-09-07T13:28:01.143Z,95304.78
2022-09-07T13:31:22.018Z,95298.00
2022-09-07T13:34:41.274Z,95300.69
2022-09-07T13:37:49.725Z,95305.25
2022-09-07T13:40:58.792Z,95309.81
2022-09-07T13:44:04.041Z,95297.53
2022-09-07T13:47:21.421Z,95307.13
2022-09-07T13:50:32.415Z,95302.09
2022-09-07T13:53:57.154Z,95304.47
2022-09-07T13:57:15.999Z,95300.22
2022-09-07T14:00:19.927Z,95300.22
2022-09-07T14:03:25.187Z,95297.06
2022-09-07T14:06:34.093Z,95295.97
2022-09-07T14:09:37.129Z,95298.63
2022-09-07T14:12:48.943Z,95299.75
2022-09-07T14:15:52.381Z,95295.97
2022-09-07T14:18:55.473Z,95302.41
2022-09-07T14:22:03.168Z,95293.94
2022-09-07T14:25:09.224Z,95298.81
2022-09-07T14:28:37.450Z,95291.56
2022-09-07T14:31:40.821Z,95297.72
2022-09-07T14:34:44.927Z,95294.25
2022-09-07T14:37:49.258Z,95296.13
2022-09-07T14:40:53.236Z,95292.34
2022-09-07T14:44:00.108Z,95298.50
2022-09-07T14:47:08.690Z,95288.44
2022-09-07T14:50:20.500Z,95290.00
2022-09-07T14:53:39.153Z,95289.22
2022-09-07T14:56:42.937Z,95291.09
2022-09-07T14:59:48.573Z,95289.22
2022-09-07T15:02:51.610Z,95285.44
2022-09-07T15:06:00.350Z,95282.91
2022-09-07T15:09:05.235Z,95282.59
2022-09-07T15:12:27.222Z,95284.59
2022-09-07T15:15:43.763Z,95282.88
2022-09-07T15:18:55.871Z,95290.00
2022-09-07T15:21:58.918Z,95293.28
2022-09-07T15:25:01.891Z,95290.28
2022-09-07T15:28:05.848Z,95290.63
2022-09-07T15:34:34.848Z,95294.22
2022-09-07T15:41:24.450Z,95298.00
2022-09-07T15:44:26.388Z,95300.66
2022-09-07T15:47:51.544Z,95313.41
2022-09-07T15:51:03.488Z,95315.16
2022-09-07T15:54:11.570Z,95316.25
2022-09-07T16:00:39.099Z,95318.16
2022-09-07T16:03:43.544Z,95320.97
2022-09-07T16:06:48.109Z,95314.38
2022-09-07T16:09:52.508Z,95315.28
2022-09-07T16:13:09.908Z,95322.38
2022-09-07T16:16:15.720Z,95316.88
2022-09-07T16:19:20.935Z,95322.22
2022-09-07T16:25:57.516Z,95318.91
2022-09-07T16:29:01.518Z,95314.03
2022-09-07T16:35:29.321Z,95317.03
2022-09-07T16:38:48.702Z,95306.78
2022-09-07T16:41:51.809Z,95306.31
2022-09-07T16:44:55.200Z,95303.00
2022-09-07T16:48:17.894Z,95300.47
2022-09-07T16:51:23.493Z,95300.63
2022-09-07T16:54:26.538Z,95303.94
2022-09-07T16:58:35.420Z,95312.78
2022-09-07T17:00:52.627Z,95306.47
2022-09-07T17:03:55.912Z,95319.09
2022-09-07T17:07:00.343Z,95314.69
2022-09-07T17:10:03.407Z,95329.47
2022-09-07T17:13:09.400Z,95331.38
2022-09-07T17:16:14.638Z,95332.31
2022-09-07T17:19:33.465Z,95346.16
2022-09-07T17:22:37.990Z,95346.94
2022-09-07T17:25:40.950Z,95346.47
2022-09-07T17:28:45.632Z,95340.19
2022-09-07T17:35:11.719Z,95335.94
2022-09-07T17:41:39.311Z,95345.09
2022-09-07T17:44:42.403Z,95353.59
2022-09-07T17:47:45.550Z,95348.25
2022-09-07T17:50:48.690Z,95363.53
2022-09-07T17:53:58.654Z,95364.94
2022-09-07T17:57:03.150Z,95369.81
2022-09-07T18:00:11.404Z,95383.50
2022-09-07T18:03:15.217Z,95387.28
2022-09-07T18:06:18.406Z,95389.19
2022-09-07T18:09:23.017Z,95391.53
2022-09-07T18:12:26.079Z,95395.63
2022-09-07T18:15:29.247Z,95399.25
2022-09-07T18:18:32.265Z,95395.63
2022-09-07T18:21:37.173Z,95397.38
2022-09-07T18:24:41.850Z,95399.41
2022-09-07T18:27:45.566Z,95399.41
2022-09-07T18:30:48.721Z,95403.34
2022-09-07T18:33:53.955Z,95407.28
2022-09-07T18:36:58.305Z,95412.63
2022-09-07T18:40:03.252Z,95403.50
2022-09-07T18:43:06.344Z,95410.75
2022-09-07T18:46:14.029Z,95412.16
2022-09-07T18:49:17.068Z,95405.88
2022-09-07T18:55:45.218Z,95405.41
2022-09-07T18:58:49.091Z,95403.81
2022-09-07T19:01:53.892Z,95409.34
2022-09-07T19:08:20.505Z,95406.81
2022-09-07T19:11:26.285Z,95400.69
2022-09-07T19:14:29.864Z,95406.03
2022-09-07T19:17:34.453Z,95409.19
2022-09-07T19:20:38.267Z,95409.66
2022-09-07T19:23:41.412Z,95409.97
2022-09-07T19:26:47.589Z,95401.00
2022-09-07T19:29:50.694Z,95407.59
2022-09-07T19:32:53.802Z,95401.47
2022-09-07T19:35:56.899Z,95400.69
2022-09-07T19:39:00.456Z,95397.53
2022-09-07T19:42:06.792Z,95393.91
2022-09-07T19:45:11.455Z,95400.84
2022-09-07T19:48:14.531Z,95414.53
2022-09-07T19:51:18.106Z,95414.16
2022-09-07T19:54:21.180Z,95408.81
2022-09-07T19:57:25.794Z,95409.59
2022-09-07T20:00:29.297Z,95409.09
2022-09-07T20:03:32.564Z,95408.16
2022-09-07T20:06:36.163Z,95406.09
2022-09-07T20:09:39.411Z,95403.13
2022-09-07T20:12:43.918Z,95401.53
2022-09-07T20:15:46.972Z,95397.88
2022-09-07T20:18:50.006Z,95395.84
2022-09-07T20:21:55.798Z,95388.75
2022-09-07T20:24:58.903Z,95398.03
2022-09-07T20:28:03.617Z,95400.25
2022-09-07T20:31:08.412Z,95406.69
2022-09-07T20:34:12.051Z,95410.16
2022-09-07T20:37:15.365Z,95401.03
2022-09-07T20:40:18.689Z,95398.66
2022-09-07T20:43:24.175Z,95403.22
2022-09-07T20:46:27.749Z,95413.16
2022-09-07T20:49:31.657Z,95414.25
2022-09-07T20:52:34.759Z,95419.91
2022-09-07T20:55:37.952Z,95416.88
2022-09-07T20:58:43.440Z,95417.19
2022-09-07T21:01:46.803Z,95423.00
2022-09-07T21:04:50.099Z,95420.34
2022-09-07T21:07:53.404Z,95432.81
2022-09-07T21:10:56.590Z,95436.38
2022-09-07T21:14:02.919Z,95445.38
2022-09-07T21:17:06.108Z,95443.03
2022-09-07T21:20:09.702Z,95442.84
2022-09-07T21:23:12.828Z,95439.06
2022-09-07T21:26:16.910Z,95433.53
2022-09-07T21:29:23.376Z,95438.09
2022-09-07T21:32:26.467Z,95426.94
2022-09-07T21:35:29.522Z,95422.22
2022-09-07T21:38:32.622Z,95431.19
2022-09-07T21:41:36.611Z,95439.19
2022-09-07T21:44:42.502Z,95436.84
2022-09-07T21:47:45.652Z,95432.59
2022-09-07T21:50:48.701Z,95435.09
2022-09-07T21:53:53.218Z,95431.94
2022-09-07T21:56:57.048Z,95435.09
2022-09-07T22:00:01.565Z,95435.09
2022-09-07T22:03:04.786Z,95425.31
2022-09-07T22:06:11.828Z,95433.84
2022-09-07T22:09:15.270Z,95426.59
2022-09-07T22:12:18.583Z,95423.13
2022-09-07T22:15:23.035Z,95424.22
2022-09-07T22:18:26.486Z,95420.75
2022-09-07T22:21:30.786Z,95417.59
2022-09-07T22:24:33.910Z,95422.03
2022-09-07T22:27:37.045Z,95417.78
2022-09-07T22:30:41.530Z,95414.34
2022-09-07T22:33:46.305Z,95420.47
2022-09-07T22:36:49.433Z,95412.25
2022-09-07T22:39:54.003Z,95404.22
2022-09-07T22:42:57.087Z,95398.56
2022-09-07T22:46:03.344Z,95397.78
2022-09-07T22:49:07.872Z,95394.75
2022-09-07T22:52:11.001Z,95394.44
2022-09-07T22:55:14.041Z,95397.13
2022-09-07T22:58:17.205Z,95396.03
2022-09-07T23:01:22.233Z,95395.22
2022-09-07T23:04:30.976Z,95404.03
2022-09-07T23:07:34.765Z,95405.94
2022-09-07T23:10:38.905Z,95410.31
2022-09-07T23:13:42.055Z,95410.63
2022-09-07T23:16:46.948Z,95411.41
2022-09-07T23:19:50.057Z,95405.13
2022-09-07T23:22:53.247Z,95406.81
2022-09-07T23:25:56.282Z,95403.19
2022-09-07T23:29:01.319Z,95402.25
2022-09-07T23:32:06.179Z,95399.25
2022-09-07T23:35:14.821Z,95406.31
2022-09-07T23:38:19.532Z,95405.84
2022-09-07T23:41:22.617Z,95397.84
2022-09-07T23:44:25.687Z,95401.13
2022-09-07T23:47:30.610Z,95407.97
2022-09-07T23:50:33.883Z,95400.16
2022-09-07T23:53:38.107Z,95397.03
2022-09-07T23:56:41.297Z,95387.41
2022-09-07T23:59:44.376Z,95379.53
